Список аэропортов
Фактическая погода:

22 января, 23:20
Температура: +1°C (-1.3*)
Ветер: перем. 2 м/с
Давление: *771 мм
несуществ. обл. дымка
Время (МСК)Темп. СВетерВлажностьДавлениеОблачностьОсадки
21:00-2В, 2 м/с97%1028 гПамалооблачно
22:00-3В, 1 м/с98%1028 гПас прояснениями
23:00-3В, 1 м/с98%1028 гПаоблачно
23 января
00:00-4ЮВ, 1 м/с98%1028 гПаоблачно
01:00-4С, 1 м/с98%1028 гПаоблачно
02:00-4С, 1 м/с98%1028 гПаоблачно
03:00-4С, 1 м/с98%1028 гПаоблачно
04:00-4СВ, 1 м/с98%1028 гПаоблачно
05:00-3В, 1 м/с98%1028 гПаоблачно
06:00-3ЮВ, 1 м/с98%1027 гПаоблачно
07:00-2Штиль 97%1028 гПаоблачно
08:00-2СВ, 1 м/с97%1028 гПаоблачно
09:00-2В, 1 м/с97%1028 гПаоблачно
10:00-2Ю, 1 м/с97%1028 гПаоблачно
11:00-1Ю, 1 м/с98%1028 гПаоблачно
12:00-2Штиль 98%1028 гПас прояснениями
13:00-1СЗ, 1 м/с98%1028 гПаоблачно
14:00-1ЮВ, 1 м/с97%1028 гПаоблачно
15:00-0Ю, 1 м/с95%1027 гПаоблачно
16:00+1Ю, 2 м/с94%1027 гПаоблачно
17:00+2СЗ, 2 м/с93%1027 гПаоблачно
18:00+2С, 1 м/с98%1027 гПаоблачно
19:00+1Ю, 1 м/с98%1027 гПаоблачно
20:00+1Ю, 2 м/с98%1027 гПаоблачно
21:00+1ЮЗ, 1 м/с99%1027 гПаоблачно
22:00+1ЮЗ, 2 м/с99%1027 гПаоблачно
23:000ЮЗ, 2 м/с99%1027 гПас прояснениями
24 января
00:00-0ЮЗ, 2 м/с99%1027 гПаоблачно
01:00-1ЮЗ, 1 м/с99%1027 гПаоблачно
02:00-2ЮЗ, 1 м/с99%1027 гПаоблачно
03:00-2ЮЗ, 1 м/с99%1027 гПаоблачно
04:00-2ЮЗ, 1 м/с99%1027 гПаоблачно
05:00-3Штиль 98%1026 гПаоблачно
06:00-3Штиль 98%1026 гПаоблачно
07:00-3Ю, 1 м/с98%1026 гПаоблачно
08:00-3Ю, 1 м/с98%1026 гПаоблачно
09:00-3Ю, 1 м/с98%1026 гПаоблачно
10:00-3Ю, 1 м/с99%1026 гПаоблачно
11:00-2Ю, 1 м/с98%1027 гПаоблачно
12:00-2Ю, 1 м/с99%1027 гПаоблачно
13:00-2Ю, 1 м/с99%1027 гПаоблачно
14:00-1Штиль 98%1027 гПас прояснениями
15:00+1З, 1 м/с89%1027 гПаоблачно
16:00+3Ю, 1 м/с83%1027 гПаясно
17:00+4ЮВ, 1 м/с84%1027 гПас прояснениями
18:00+2В, 1 м/с92%1027 гПас прояснениями
19:00+1ЮВ, 1 м/с95%1027 гПаясно
20:00+1ЮВ, 2 м/с95%1027 гПамалооблачно
21:00-0Ю, 2 м/с98%1027 гПаоблачно